createdAt,value
2019-04-14T00:00:49.348Z,956.64
2019-04-14T00:01:47.959Z,956.6
2019-04-14T00:02:49.099Z,956.61
2019-04-14T00:03:47.921Z,956.6
2019-04-14T00:04:48.672Z,956.6
2019-04-14T00:05:47.880Z,956.6
2019-04-14T00:06:48.341Z,956.54
2019-04-14T00:07:47.846Z,956.53
2019-04-14T00:08:47.974Z,956.51
2019-04-14T00:09:47.800Z,956.52
2019-04-14T00:10:48.609Z,956.54
2019-04-14T00:11:48.113Z,956.55
2019-04-14T00:12:47.745Z,956.53
2019-04-14T00:13:47.895Z,956.52
2019-04-14T00:14:49.012Z,956.54
2019-04-14T00:15:50.353Z,956.54
2019-04-14T00:16:48.821Z,956.55
2019-04-14T00:17:47.858Z,956.57
2019-04-14T00:18:47.623Z,956.56
2019-04-14T00:19:47.822Z,956.58
2019-04-14T00:20:47.581Z,956.58
2019-04-14T00:21:47.693Z,956.55
2019-04-14T00:22:47.542Z,956.53
2019-04-14T00:23:47.877Z,956.57
2019-04-14T00:24:48.581Z,956.52
2019-04-14T00:25:47.688Z,956.55
2019-04-14T00:26:48.686Z,956.57
2019-04-14T00:27:47.587Z,956.53
2019-04-14T00:28:47.422Z,956.49
2019-04-14T00:29:47.919Z,956.5
2019-04-14T00:30:47.383Z,956.54
2019-04-14T00:31:47.646Z,956.53
2019-04-14T00:32:47.346Z,956.54
2019-04-14T00:33:47.580Z,956.58
2019-04-14T00:34:48.442Z,956.55
2019-04-14T00:35:47.292Z,956.55
2019-04-14T00:36:48.111Z,956.52
2019-04-14T00:37:47.243Z,956.5
2019-04-14T00:38:47.772Z,956.52
2019-04-14T00:39:47.202Z,956.56
2019-04-14T00:40:47.595Z,956.51
2019-04-14T00:41:50.777Z,956.53
2019-04-14T00:42:47.369Z,956.56
2019-04-14T00:43:47.123Z,956.54
2019-04-14T00:44:47.390Z,956.54
2019-04-14T00:45:51.085Z,956.56
2019-04-14T00:46:47.457Z,956.55
2019-04-14T00:47:54.651Z,956.55
2019-04-14T00:48:47.371Z,956.54
2019-04-14T00:49:47.005Z,956.55
2019-04-14T00:50:47.386Z,956.54
2019-04-14T00:51:47.017Z,956.51
2019-04-14T00:52:47.755Z,956.54
2019-04-14T00:53:46.924Z,956.49
2019-04-14T00:54:47.746Z,956.54
2019-04-14T00:55:46.884Z,956.53
2019-04-14T00:56:47.638Z,956.52
2019-04-14T00:57:46.842Z,956.51
2019-04-14T00:58:47.510Z,956.52
2019-04-14T00:59:46.803Z,956.48
2019-04-14T01:00:47.286Z,956.48
2019-04-14T01:01:46.762Z,956.51
2019-04-14T01:02:47.168Z,956.44
2019-04-14T01:03:46.724Z,956.49
2019-04-14T01:04:46.978Z,956.52
2019-04-14T01:05:46.683Z,956.56
2019-04-14T01:06:46.957Z,956.56
2019-04-14T01:07:47.911Z,956.54
2019-04-14T01:08:46.841Z,956.51
2019-04-14T01:09:46.601Z,956.5
2019-04-14T01:10:47.584Z,956.52
2019-04-14T01:11:46.587Z,956.58
2019-04-14T01:12:47.428Z,956.58
2019-04-14T01:13:46.522Z,956.61
2019-04-14T01:14:47.386Z,956.56
2019-04-14T01:15:54.505Z,956.52
2019-04-14T01:16:47.333Z,956.53
2019-04-14T01:17:46.441Z,956.51
2019-04-14T01:18:47.278Z,956.5
2019-04-14T01:19:46.399Z,956.5
2019-04-14T01:20:47.081Z,956.48
2019-04-14T01:21:46.359Z,956.5
2019-04-14T01:22:46.686Z,956.51
2019-04-14T01:23:46.319Z,956.5
2019-04-14T01:24:46.836Z,956.51
2019-04-14T01:25:46.294Z,956.53
2019-04-14T01:26:46.407Z,956.54
2019-04-14T01:27:47.314Z,956.5
2019-04-14T01:28:46.269Z,956.52
2019-04-14T01:29:47.248Z,956.53
2019-04-14T01:30:46.177Z,956.56
2019-04-14T01:31:47.103Z,956.55
2019-04-14T01:32:46.137Z,956.52
2019-04-14T01:33:46.953Z,956.6
2019-04-14T01:34:46.099Z,956.53
2019-04-14T01:35:46.684Z,956.53
2019-04-14T01:36:46.059Z,956.54
2019-04-14T01:37:46.402Z,956.55
2019-04-14T01:38:47.016Z,956.61
2019-04-14T01:39:46.114Z,956.57
2019-04-14T01:40:46.653Z,956.55
2019-04-14T01:41:45.953Z,956.58
2019-04-14T01:42:46.337Z,956.52
2019-04-14T01:43:45.914Z,956.5
2019-04-14T01:44:46.052Z,956.51
2019-04-14T01:45:57.970Z,956.46
2019-04-14T01:46:45.852Z,956.48
2019-04-14T01:47:46.709Z,956.45
2019-04-14T01:48:45.828Z,956.46
2019-04-14T01:49:46.592Z,956.44
2019-04-14T01:50:45.770Z,956.49
2019-04-14T01:51:46.334Z,956.52
2019-04-14T01:52:45.817Z,956.5
2019-04-14T01:53:46.755Z,956.56
2019-04-14T01:54:45.691Z,956.52
2019-04-14T01:55:46.216Z,956.55
2019-04-14T01:56:45.649Z,956.58
2019-04-14T01:57:45.946Z,956.6
2019-04-14T01:58:46.588Z,956.56
2019-04-14T01:59:45.984Z,956.57
2019-04-14T02:00:46.652Z,956.6
2019-04-14T02:01:45.738Z,956.57
2019-04-14T02:02:46.507Z,956.58
2019-04-14T02:03:45.613Z,956.58
2019-04-14T02:04:46.386Z,956.55
2019-04-14T02:05:45.465Z,956.54
2019-04-14T02:06:46.211Z,956.5
2019-04-14T02:07:45.425Z,956.49
2019-04-14T02:08:45.832Z,956.45
2019-04-14T02:09:46.734Z,956.44
2019-04-14T02:10:45.584Z,956.5
2019-04-14T02:11:46.304Z,956.49
2019-04-14T02:12:45.323Z,956.49
2019-04-14T02:13:46.430Z,956.54
2019-04-14T02:14:45.281Z,956.54
2019-04-14T02:15:46.435Z,956.53
2019-04-14T02:16:50.173Z,956.57
2019-04-14T02:17:46.029Z,956.59
2019-04-14T02:18:45.199Z,956.55
2019-04-14T02:19:45.976Z,956.5
2019-04-14T02:20:45.158Z,956.52
2019-04-14T02:21:45.604Z,956.57
2019-04-14T02:22:46.285Z,956.53
2019-04-14T02:23:45.334Z,956.55
2019-04-14T02:24:45.992Z,956.56
2019-04-14T02:25:45.122Z,956.58
2019-04-14T02:26:45.917Z,956.56
2019-04-14T02:27:45.129Z,956.6
2019-04-14T02:28:46.094Z,956.6
2019-04-14T02:29:45.136Z,956.56
2019-04-14T02:30:52.221Z,956.57
2019-04-14T02:33:38.768Z,956.52
2019-04-14T02:40:00.245Z,956.53
2019-04-14T02:43:23.500Z,956.53
2019-04-14T02:46:30.828Z,956.45
2019-04-14T02:53:00.290Z,956.55
2019-04-14T02:55:57.249Z,956.56
2019-04-14T02:59:19.023Z,956.6
2019-04-14T03:02:56.001Z,956.56
2019-04-14T03:06:11.960Z,956.57
2019-04-14T03:12:00.242Z,956.58
2019-04-14T03:15:06.758Z,956.52
2019-04-14T03:18:23.742Z,956.52
2019-04-14T03:24:33.555Z,956.51
2019-04-14T03:26:41.450Z,956.46
2019-04-14T03:29:49.701Z,956.42
2019-04-14T03:34:32.372Z,956.36
2019-04-14T03:39:05.538Z,956.36
2019-04-14T03:42:08.291Z,956.34
2019-04-14T03:47:59.631Z,956.3
2019-04-14T03:51:08.083Z,956.32
2019-04-14T03:54:02.749Z,956.3
2019-04-14T03:55:45.154Z,956.25
2019-04-14T03:56:37.849Z,956.31
2019-04-14T03:57:36.789Z,956.3
2019-04-14T03:58:37.820Z,956.29
2019-04-14T03:59:36.790Z,956.33
2019-04-14T04:00:37.594Z,956.28
2019-04-14T04:01:36.831Z,956.28
2019-04-14T04:02:37.922Z,956.29
2019-04-14T04:03:36.851Z,956.3
2019-04-14T04:04:37.934Z,956.29
2019-04-14T04:05:36.754Z,956.3
2019-04-14T04:06:37.702Z,956.29
2019-04-14T04:07:36.586Z,956.32
2019-04-14T04:08:37.610Z,956.28
2019-04-14T04:09:36.568Z,956.32
2019-04-14T04:10:36.536Z,956.31
2019-04-14T04:11:36.668Z,956.27
2019-04-14T04:12:36.860Z,956.29
2019-04-14T04:13:36.639Z,956.29
2019-04-14T04:14:37.698Z,956.29
2019-04-14T04:15:36.541Z,956.32
2019-04-14T04:16:37.384Z,956.32
2019-04-14T04:17:36.379Z,956.31
2019-04-14T04:18:47.193Z,956.35
2019-04-14T04:19:36.344Z,956.34
2019-04-14T04:20:37.062Z,956.35
2019-04-14T04:21:36.298Z,956.32
2019-04-14T04:22:36.882Z,956.35
2019-04-14T04:23:36.257Z,956.34
2019-04-14T04:24:36.944Z,956.33
2019-04-14T04:25:36.218Z,956.36
2019-04-14T04:26:36.560Z,956.37
2019-04-14T04:27:36.175Z,956.38
2019-04-14T04:28:36.383Z,956.41
2019-04-14T04:29:36.136Z,956.37
2019-04-14T04:30:36.285Z,956.41
2019-04-14T04:31:36.095Z,956.43
2019-04-14T04:32:36.261Z,956.42
2019-04-14T04:33:37.027Z,956.46
2019-04-14T04:34:36.034Z,956.43
2019-04-14T04:35:37.064Z,956.46
2019-04-14T04:36:35.994Z,956.48
2019-04-14T04:37:36.803Z,956.5
2019-04-14T04:38:35.952Z,956.5
2019-04-14T04:39:36.804Z,956.48
2019-04-14T04:40:35.913Z,956.49
2019-04-14T04:41:36.409Z,956.52
2019-04-14T04:42:35.877Z,956.5
2019-04-14T04:43:36.470Z,956.54
2019-04-14T04:44:35.848Z,956.53
2019-04-14T04:45:36.540Z,956.57
2019-04-14T04:46:35.806Z,956.58
2019-04-14T04:47:36.230Z,956.57
2019-04-14T04:48:37.015Z,956.58
2019-04-14T04:49:36.141Z,956.55
2019-04-14T04:50:36.782Z,956.51
2019-04-14T04:51:35.744Z,956.57
2019-04-14T04:52:36.476Z,956.55
2019-04-14T04:53:35.653Z,956.54
2019-04-14T04:54:36.380Z,956.56
2019-04-14T04:55:35.615Z,956.52
2019-04-14T04:56:36.186Z,956.55
2019-04-14T04:57:35.573Z,956.52
2019-04-14T04:58:35.554Z,956.52
2019-04-14T04:59:36.585Z,956.53
2019-04-14T05:00:35.518Z,956.59
2019-04-14T05:01:36.441Z,956.53
2019-04-14T05:02:35.476Z,956.56
2019-04-14T05:03:36.356Z,956.55
2019-04-14T05:04:35.435Z,956.54
2019-04-14T05:05:36.227Z,956.55
2019-04-14T05:06:35.395Z,956.58
2019-04-14T05:07:36.225Z,956.57
2019-04-14T05:08:35.357Z,956.59
2019-04-14T05:09:36.215Z,956.63
2019-04-14T05:10:35.318Z,956.6
2019-04-14T05:11:36.162Z,956.6
2019-04-14T05:12:35.278Z,956.59
2019-04-14T05:13:35.923Z,956.61
2019-04-14T05:14:35.240Z,956.62
2019-04-14T05:15:35.824Z,956.64
2019-04-14T05:16:35.201Z,956.66
2019-04-14T05:17:35.182Z,956.66
2019-04-14T05:18:35.541Z,956.67
2019-04-14T05:19:37.515Z,956.67
2019-04-14T05:20:35.569Z,956.65
2019-04-14T05:21:35.102Z,956.66
2019-04-14T05:22:35.428Z,956.7
2019-04-14T05:23:35.066Z,956.69
2019-04-14T05:24:35.336Z,956.73
2019-04-14T05:25:35.030Z,956.71
2019-04-14T05:26:35.134Z,956.75
2019-04-14T05:27:34.988Z,956.75
2019-04-14T05:28:35.275Z,956.77
2019-04-14T05:29:34.949Z,956.79
2019-04-14T05:30:35.034Z,956.8
2019-04-14T05:31:35.991Z,956.79
2019-04-14T05:32:34.892Z,956.84
2019-04-14T05:33:35.929Z,956.86
2019-04-14T05:34:34.854Z,956.82
2019-04-14T05:35:35.813Z,956.85
2019-04-14T05:36:34.817Z,956.86
2019-04-14T05:37:35.648Z,956.83
2019-04-14T05:38:35.744Z,956.86
2019-04-14T05:39:35.419Z,956.82
2019-04-14T05:40:34.739Z,956.84
2019-04-14T05:41:35.367Z,956.86
2019-04-14T05:42:34.701Z,956.84
2019-04-14T05:43:43.239Z,956.89
2019-04-14T05:44:34.661Z,956.87
2019-04-14T05:45:35.085Z,956.87
2019-04-14T05:46:34.624Z,956.84
2019-04-14T05:47:34.992Z,956.81
2019-04-14T05:48:35.690Z,956.82
2019-04-14T05:49:41.075Z,956.84
2019-04-14T05:50:35.604Z,956.84
2019-04-14T05:51:35.053Z,956.82
2019-04-14T05:52:34.510Z,956.79
2019-04-14T05:53:35.087Z,956.82
2019-04-14T05:54:34.473Z,956.78
2019-04-14T05:55:35.127Z,956.8
2019-04-14T05:56:35.859Z,956.78
2019-04-14T05:57:35.143Z,956.83
2019-04-14T05:58:34.395Z,956.78
2019-04-14T05:59:35.300Z,956.81
2019-04-14T06:00:34.359Z,956.81
2019-04-14T06:01:34.340Z,956.86
2019-04-14T06:02:35.501Z,956.86
2019-04-14T06:03:34.314Z,956.87
2019-04-14T06:04:35.226Z,956.86
2019-04-14T06:05:34.263Z,956.9
2019-04-14T06:06:34.246Z,956.86
2019-04-14T06:07:34.227Z,956.87
2019-04-14T06:08:34.208Z,956.91
2019-04-14T06:09:34.189Z,956.9
2019-04-14T06:10:34.169Z,956.9
2019-04-14T06:11:34.154Z,956.89
2019-04-14T06:12:34.132Z,956.93
2019-04-14T06:13:34.112Z,956.89
2019-04-14T06:14:34.093Z,956.87
2019-04-14T06:15:34.074Z,956.94
2019-04-14T06:16:34.055Z,956.88
2019-04-14T06:17:34.037Z,956.86
2019-04-14T06:18:34.018Z,956.89
2019-04-14T06:19:37.873Z,956.91
2019-04-14T06:20:33.978Z,956.93
2019-04-14T06:21:33.959Z,956.94
2019-04-14T06:22:33.942Z,956.91
2019-04-14T06:23:33.922Z,956.91
2019-04-14T06:24:33.903Z,956.89
2019-04-14T06:25:36.244Z,956.9
2019-04-14T06:26:33.867Z,956.9
2019-04-14T06:27:33.846Z,956.94
2019-04-14T06:28:33.827Z,956.94
2019-04-14T06:29:33.813Z,956.92
2019-04-14T06:30:33.789Z,956.92
2019-04-14T06:31:33.770Z,956.9
2019-04-14T06:32:33.786Z,956.95
2019-04-14T06:33:33.731Z,956.94
2019-04-14T06:34:33.713Z,957
2019-04-14T06:35:33.694Z,956.95
2019-04-14T06:36:33.675Z,956.99
2019-04-14T06:37:33.657Z,957.01
2019-04-14T06:38:33.637Z,957
2019-04-14T06:39:33.618Z,957.03
2019-04-14T06:40:33.602Z,957.01
2019-04-14T06:41:33.582Z,957.03
2019-04-14T06:42:33.561Z,956.99
2019-04-14T06:43:33.541Z,957.03
2019-04-14T06:44:33.523Z,957.03
2019-04-14T06:45:33.503Z,957.02
2019-04-14T06:46:33.484Z,957.04
2019-04-14T06:47:33.469Z,957.05
2019-04-14T06:48:33.447Z,957.05
2019-04-14T06:49:33.427Z,957.1
2019-04-14T06:50:33.407Z,957.06
2019-04-14T06:51:33.389Z,957.04
2019-04-14T06:52:33.371Z,957.05
2019-04-14T06:53:33.351Z,957.04
2019-04-14T06:54:33.332Z,957.09
2019-04-14T06:55:33.314Z,957.04
2019-04-14T06:56:33.294Z,957.07
2019-04-14T06:57:33.276Z,957.05
2019-04-14T06:58:33.256Z,957.05
2019-04-14T06:59:33.236Z,957.05
2019-04-14T07:00:33.217Z,957.09
2019-04-14T07:01:33.197Z,957.05
2019-04-14T07:02:33.179Z,957.04
2019-04-14T07:03:33.160Z,957.07
2019-04-14T07:04:33.141Z,957.03
2019-04-14T07:05:33.120Z,957.07
2019-04-14T07:06:33.102Z,957.04
2019-04-14T07:07:33.082Z,957.09
2019-04-14T07:08:33.063Z,957.03
2019-04-14T07:09:33.044Z,957.04
2019-04-14T07:10:33.024Z,957.03
2019-04-14T07:11:33.011Z,957.02
2019-04-14T07:12:32.987Z,957
2019-04-14T07:13:32.996Z,957.07
2019-04-14T07:14:32.948Z,957.07
2019-04-14T07:15:32.930Z,957
2019-04-14T07:16:32.911Z,957.05
2019-04-14T07:17:32.896Z,957.04
2019-04-14T07:18:32.870Z,957.09
2019-04-14T07:19:32.854Z,957.1
2019-04-14T07:20:32.832Z,957.09
2019-04-14T07:21:32.816Z,957.14
2019-04-14T07:22:32.820Z,957.14
2019-04-14T07:23:32.778Z,957.12
2019-04-14T07:24:32.757Z,957.14
2019-04-14T07:25:32.738Z,957.14
2019-04-14T07:26:32.719Z,957.15
2019-04-14T07:27:32.698Z,957.15
2019-04-14T07:28:32.687Z,957.15
2019-04-14T07:29:32.660Z,957.18
2019-04-14T07:30:32.641Z,957.17
2019-04-14T07:31:32.623Z,957.17
2019-04-14T07:32:32.603Z,957.16
2019-04-14T07:33:32.584Z,957.16
2019-04-14T07:34:32.565Z,957.18
2019-04-14T07:35:32.545Z,957.19
2019-04-14T07:36:32.530Z,957.15
2019-04-14T07:37:32.514Z,957.14
2019-04-14T07:38:32.488Z,957.14
2019-04-14T07:39:32.470Z,957.18
2019-04-14T07:40:32.450Z,957.18
2019-04-14T07:41:32.432Z,957.19
2019-04-14T07:42:32.412Z,957.23
2019-04-14T07:43:32.395Z,957.21
2019-04-14T07:44:32.374Z,957.22
2019-04-14T07:45:32.394Z,957.22
2019-04-14T07:46:32.335Z,957.21
2019-04-14T07:47:32.316Z,957.26
2019-04-14T07:48:32.297Z,957.24
2019-04-14T07:49:32.853Z,957.22
2019-04-14T07:50:32.260Z,957.2
2019-04-14T07:51:32.243Z,957.18
2019-04-14T07:52:32.221Z,957.24
2019-04-14T07:53:32.202Z,957.19
2019-04-14T07:54:32.239Z,957.21
2019-04-14T07:55:32.164Z,957.24
2019-04-14T07:56:32.147Z,957.22
2019-04-14T07:57:32.127Z,957.2
2019-04-14T07:58:32.107Z,957.23
2019-04-14T07:59:32.087Z,957.24
2019-04-14T08:00:32.069Z,957.21
2019-04-14T08:01:32.050Z,957.24
2019-04-14T08:02:32.029Z,957.28
2019-04-14T08:03:32.016Z,957.24
2019-04-14T08:04:31.993Z,957.29
2019-04-14T08:05:31.974Z,957.29
2019-04-14T08:06:31.954Z,957.3
2019-04-14T08:07:31.935Z,957.33
2019-04-14T08:08:31.916Z,957.31
2019-04-14T08:09:31.897Z,957.32
2019-04-14T08:10:31.884Z,957.34
2019-04-14T08:11:31.861Z,957.32
2019-04-14T08:12:31.841Z,957.3
2019-04-14T08:13:31.825Z,957.32
2019-04-14T08:14:31.804Z,957.3
2019-04-14T08:15:31.784Z,957.29
2019-04-14T08:16:31.767Z,957.3
2019-04-14T08:17:31.747Z,957.3
2019-04-14T08:18:31.727Z,957.3
2019-04-14T08:19:31.709Z,957.28
2019-04-14T08:20:31.689Z,957.28
2019-04-14T08:21:31.673Z,957.32
2019-04-14T08:22:31.654Z,957.28
2019-04-14T08:23:31.636Z,957.26
2019-04-14T08:24:31.666Z,957.28
2019-04-14T08:25:31.599Z,957.32
2019-04-14T08:26:31.581Z,957.27
2019-04-14T08:27:31.561Z,957.27
2019-04-14T08:28:31.543Z,957.24
2019-04-14T08:29:31.524Z,957.29
2019-04-14T08:30:31.505Z,957.31
2019-04-14T08:31:31.487Z,957.3
2019-04-14T08:32:31.469Z,957.33
2019-04-14T08:33:31.451Z,957.3
2019-04-14T08:34:31.432Z,957.32
2019-04-14T08:35:31.413Z,957.34
2019-04-14T08:36:33.292Z,957.29
2019-04-14T08:37:31.378Z,957.35
2019-04-14T08:38:31.358Z,957.34
2019-04-14T08:39:31.340Z,957.31
2019-04-14T08:40:31.326Z,957.35
2019-04-14T08:41:31.304Z,957.36
2019-04-14T08:42:31.285Z,957.4
2019-04-14T08:43:31.267Z,957.41
2019-04-14T08:44:31.250Z,957.41
2019-04-14T08:45:31.232Z,957.4
2019-04-14T08:46:31.212Z,957.4
2019-04-14T08:47:31.194Z,957.36
2019-04-14T08:48:31.176Z,957.37
2019-04-14T08:49:31.160Z,957.38
2019-04-14T08:50:39.175Z,957.36
2019-04-14T08:51:31.123Z,957.36
2019-04-14T08:52:31.104Z,957.4
2019-04-14T08:53:31.086Z,957.41
2019-04-14T08:55:42.142Z,957.38
2019-04-14T08:56:42.122Z,957.39
2019-04-14T08:57:42.103Z,957.44
2019-04-14T08:58:42.087Z,957.41
2019-04-14T08:59:42.068Z,957.38
2019-04-14T09:00:42.102Z,957.41
2019-04-14T09:01:42.033Z,957.4
2019-04-14T09:02:42.015Z,957.43
2019-04-14T09:03:42.003Z,957.39
2019-04-14T09:04:41.979Z,957.43
2019-04-14T09:05:41.961Z,957.41
2019-04-14T09:06:41.945Z,957.4
2019-04-14T09:07:41.930Z,957.43
2019-04-14T09:08:41.909Z,957.43
2019-04-14T09:09:41.893Z,957.42
2019-04-14T09:10:41.875Z,957.37
2019-04-14T09:11:41.857Z,957.41
2019-04-14T09:12:41.837Z,957.4
2019-04-14T09:13:41.828Z,957.37
2019-04-14T09:14:41.804Z,957.39
2019-04-14T09:15:41.784Z,957.37
2019-04-14T09:16:41.768Z,957.37
2019-04-14T09:17:41.749Z,957.37
2019-04-14T09:18:41.732Z,957.39
2019-04-14T09:19:41.715Z,957.42
2019-04-14T09:20:51.592Z,957.43
2019-04-14T09:21:41.678Z,957.44
2019-04-14T09:22:41.661Z,957.37
2019-04-14T09:23:41.645Z,957.44
2019-04-14T09:24:41.627Z,957.39
2019-04-14T09:25:41.612Z,957.43
2019-04-14T09:26:41.591Z,957.42
2019-04-14T09:27:41.574Z,957.44
2019-04-14T09:28:41.557Z,957.44
2019-04-14T09:29:41.538Z,957.4
2019-04-14T09:30:41.520Z,957.47
2019-04-14T09:31:41.503Z,957.43
2019-04-14T09:32:41.486Z,957.46
2019-04-14T09:33:41.470Z,957.44
2019-04-14T09:34:41.450Z,957.47
2019-04-14T09:35:41.452Z,957.45
2019-04-14T09:36:41.416Z,957.47
2019-04-14T09:37:41.405Z,957.45
2019-04-14T09:38:41.382Z,957.45
2019-04-14T09:39:41.363Z,957.44
2019-04-14T09:40:41.348Z,957.43
2019-04-14T09:41:41.378Z,957.48
2019-04-14T09:42:41.311Z,957.45
2019-04-14T09:43:41.294Z,957.48
2019-04-14T09:44:41.277Z,957.46
2019-04-14T09:45:41.267Z,957.47
2019-04-14T09:46:41.241Z,957.48
2019-04-14T09:47:41.225Z,957.44
2019-04-14T09:48:42.885Z,957.51
2019-04-14T09:49:41.189Z,957.49
2019-04-14T09:50:41.173Z,957.49
2019-04-14T09:51:41.156Z,957.53
2019-04-14T09:52:41.138Z,957.52
2019-04-14T09:53:41.120Z,957.54
2019-04-14T09:54:41.103Z,957.55
2019-04-14T09:55:41.086Z,957.49
2019-04-14T09:56:41.068Z,957.52
2019-04-14T09:57:41.051Z,957.52
2019-04-14T09:58:41.034Z,957.54
2019-04-14T09:59:41.015Z,957.55
2019-04-14T10:00:41.000Z,957.53
2019-04-14T10:01:40.981Z,957.55
2019-04-14T10:02:40.963Z,957.56
2019-04-14T10:03:40.945Z,957.56
2019-04-14T10:04:40.929Z,957.52
2019-04-14T10:05:40.915Z,957.55
2019-04-14T10:06:41.126Z,957.56
2019-04-14T10:07:40.879Z,957.55
2019-04-14T10:08:40.860Z,957.57
2019-04-14T10:09:40.842Z,957.56
2019-04-14T10:10:40.823Z,957.58
2019-04-14T10:11:48.244Z,957.55
2019-04-14T10:12:40.789Z,957.58
2019-04-14T10:13:40.772Z,957.56
2019-04-14T10:14:40.753Z,957.56
2019-04-14T10:15:40.737Z,957.6
2019-04-14T10:16:40.719Z,957.61
2019-04-14T10:17:40.707Z,957.59
2019-04-14T10:18:40.685Z,957.61
2019-04-14T10:19:40.667Z,957.64
2019-04-14T10:20:40.652Z,957.63
2019-04-14T10:21:40.633Z,957.67
2019-04-14T10:22:40.614Z,957.6
2019-04-14T10:23:40.599Z,957.58
2019-04-14T10:24:40.582Z,957.61
2019-04-14T10:25:40.563Z,957.61
2019-04-14T10:26:40.547Z,957.65
2019-04-14T10:27:40.532Z,957.61
2019-04-14T10:28:40.512Z,957.58
2019-04-14T10:29:40.496Z,957.64
2019-04-14T10:30:40.482Z,957.61
2019-04-14T10:31:40.461Z,957.61
2019-04-14T10:32:40.445Z,957.6
2019-04-14T10:33:40.427Z,957.61
2019-04-14T10:34:40.422Z,957.61
2019-04-14T10:35:40.395Z,957.58
2019-04-14T10:36:40.376Z,957.6
2019-04-14T10:37:40.358Z,957.58
2019-04-14T10:38:40.346Z,957.59
2019-04-14T10:39:40.324Z,957.64
2019-04-14T10:40:40.309Z,957.64
2019-04-14T10:41:40.292Z,957.61
2019-04-14T10:42:40.277Z,957.67
2019-04-14T10:43:40.262Z,957.63
2019-04-14T10:44:40.246Z,957.6
2019-04-14T10:45:40.225Z,957.61
2019-04-14T10:46:40.207Z,957.63
2019-04-14T10:47:40.195Z,957.63
2019-04-14T10:48:40.171Z,957.64
2019-04-14T10:49:40.155Z,957.67
2019-04-14T10:50:40.137Z,957.64
2019-04-14T10:51:40.123Z,957.65
2019-04-14T10:52:40.103Z,957.69
2019-04-14T10:53:40.088Z,957.66
2019-04-14T10:54:40.069Z,957.68
2019-04-14T10:55:40.055Z,957.68
2019-04-14T10:56:40.035Z,957.71
2019-04-14T10:57:40.023Z,957.72
2019-04-14T10:58:40.001Z,957.72
2019-04-14T10:59:39.986Z,957.66
2019-04-14T11:00:39.969Z,957.7
2019-04-14T11:01:39.951Z,957.63
2019-04-14T11:02:39.933Z,957.67
2019-04-14T11:03:39.930Z,957.64
2019-04-14T11:04:39.900Z,957.66
2019-04-14T11:05:39.882Z,957.69
2019-04-14T11:06:39.865Z,957.7
2019-04-14T11:07:39.848Z,957.7
2019-04-14T11:08:39.832Z,957.7
2019-04-14T11:09:39.815Z,957.67
2019-04-14T11:10:39.797Z,957.72
2019-04-14T11:11:39.781Z,957.68
2019-04-14T11:13:52.032Z,957.73
2019-04-14T11:14:52.016Z,957.72
2019-04-14T11:15:52.000Z,957.7
2019-04-14T11:16:51.981Z,957.73
2019-04-14T11:17:51.965Z,957.73
2019-04-14T11:18:51.948Z,957.69
2019-04-14T11:19:51.930Z,957.68
2019-04-14T11:20:51.913Z,957.74
2019-04-14T11:21:51.898Z,957.72
2019-04-14T11:23:02.660Z,957.63
2019-04-14T11:23:51.864Z,957.65
2019-04-14T11:24:51.844Z,957.68
2019-04-14T11:25:51.831Z,957.7
2019-04-14T11:26:51.810Z,957.73
2019-04-14T11:27:51.793Z,957.74
2019-04-14T11:28:51.776Z,957.68
2019-04-14T11:29:54.010Z,957.71
2019-04-14T11:30:51.740Z,957.75
2019-04-14T11:31:51.734Z,957.71
2019-04-14T11:32:51.708Z,957.8
2019-04-14T11:33:51.739Z,957.74
2019-04-14T11:34:51.672Z,957.78
2019-04-14T11:35:51.669Z,957.77
2019-04-14T11:36:51.641Z,957.76
2019-04-14T11:37:51.620Z,957.77
2019-04-14T11:38:51.614Z,957.74
2019-04-14T11:39:51.595Z,957.74
2019-04-14T11:40:51.577Z,957.72
2019-04-14T11:41:51.551Z,957.68
2019-04-14T11:42:52.382Z,957.67
2019-04-14T11:43:51.567Z,957.72
2019-04-14T11:44:51.500Z,957.69
2019-04-14T11:45:51.482Z,957.68
2019-04-14T11:46:51.465Z,957.67
2019-04-14T11:47:51.449Z,957.65
2019-04-14T11:48:51.429Z,957.68
2019-04-14T11:49:51.412Z,957.68
2019-04-14T11:50:51.399Z,957.69
2019-04-14T11:51:55.368Z,957.73
2019-04-14T11:52:51.361Z,957.71
2019-04-14T11:53:51.344Z,957.68
2019-04-14T11:54:51.327Z,957.67
2019-04-14T11:55:51.318Z,957.74
2019-04-14T11:56:51.300Z,957.77
2019-04-14T11:57:51.275Z,957.77
2019-04-14T11:58:51.259Z,957.76
2019-04-14T11:59:51.241Z,957.77
2019-04-14T12:00:51.224Z,957.75
2019-04-14T12:01:51.207Z,957.81
2019-04-14T12:02:51.204Z,957.83
2019-04-14T12:03:51.172Z,957.86
2019-04-14T12:04:51.156Z,957.87
2019-04-14T12:05:51.140Z,957.91
2019-04-14T12:06:51.123Z,957.87
2019-04-14T12:07:51.105Z,957.87
2019-04-14T12:08:51.090Z,957.9
2019-04-14T12:09:51.072Z,957.83
2019-04-14T12:10:51.054Z,957.84
2019-04-14T12:11:51.038Z,957.88
2019-04-14T12:12:51.020Z,957.82
2019-04-14T12:13:51.004Z,957.84
2019-04-14T12:14:50.986Z,957.86
2019-04-14T12:15:50.970Z,957.88
2019-04-14T12:16:50.953Z,957.88
2019-04-14T12:17:50.937Z,957.89
2019-04-14T12:18:50.921Z,957.92
2019-04-14T12:19:50.903Z,957.9
2019-04-14T12:20:50.886Z,957.9
2019-04-14T12:21:50.876Z,957.92
2019-04-14T12:22:50.853Z,957.91
2019-04-14T12:23:50.836Z,957.97
2019-04-14T12:24:50.822Z,957.95
2019-04-14T12:25:50.807Z,957.93
2019-04-14T12:26:50.786Z,957.94
2019-04-14T12:27:51.255Z,957.94
2019-04-14T12:28:51.548Z,957.9
2019-04-14T12:29:50.738Z,957.89
2019-04-14T12:30:51.119Z,957.92
2019-04-14T12:31:50.995Z,957.92
2019-04-14T12:32:50.688Z,957.91
2019-04-14T12:33:50.672Z,957.95
2019-04-14T12:34:50.659Z,957.91
2019-04-14T12:35:50.640Z,957.95
2019-04-14T12:36:50.622Z,957.92
2019-04-14T12:37:50.607Z,957.91
2019-04-14T12:38:50.591Z,957.97
2019-04-14T12:39:50.574Z,957.94
2019-04-14T12:40:50.557Z,957.97
2019-04-14T12:41:50.540Z,958.03
2019-04-14T12:42:50.585Z,957.94
2019-04-14T12:43:50.506Z,958
2019-04-14T12:44:50.491Z,957.96
2019-04-14T12:45:50.473Z,957.99
2019-04-14T12:46:50.458Z,957.98
2019-04-14T12:47:50.443Z,958.01
2019-04-14T12:48:50.425Z,958
2019-04-14T12:49:50.408Z,957.96
2019-04-14T12:50:50.390Z,957.99
2019-04-14T12:51:50.373Z,958.02
2019-04-14T12:52:50.358Z,957.95
2019-04-14T12:53:50.340Z,958.01
2019-04-14T12:54:50.322Z,957.98
2019-04-14T12:55:50.307Z,958.02
2019-04-14T12:56:50.291Z,957.98
2019-04-14T12:57:50.273Z,957.99
2019-04-14T12:58:50.257Z,957.98
2019-04-14T12:59:50.245Z,957.97
2019-04-14T13:00:50.228Z,958.01
2019-04-14T13:01:50.206Z,958.02
2019-04-14T13:02:50.189Z,958.02
2019-04-14T13:03:50.178Z,958
2019-04-14T13:04:50.156Z,957.98
2019-04-14T13:05:50.140Z,958.02
2019-04-14T13:06:50.122Z,957.97
2019-04-14T13:07:50.106Z,957.94
2019-04-14T13:08:50.089Z,957.97
2019-04-14T13:09:50.072Z,957.94
2019-04-14T13:10:50.055Z,957.98
2019-04-14T13:11:50.039Z,957.96
2019-04-14T13:12:50.023Z,957.96
2019-04-14T13:13:50.004Z,958.01
2019-04-14T13:14:49.988Z,958.04
2019-04-14T13:15:49.971Z,958.02
2019-04-14T13:16:49.955Z,957.99
2019-04-14T13:17:49.940Z,957.98
2019-04-14T13:18:49.922Z,957.98
2019-04-14T13:19:49.907Z,958
2019-04-14T13:20:49.887Z,957.94
2019-04-14T13:21:49.870Z,957.9
2019-04-14T13:22:49.854Z,957.92
2019-04-14T13:23:49.837Z,957.9
2019-04-14T13:24:49.820Z,957.91
2019-04-14T13:25:49.803Z,957.93
2019-04-14T13:26:49.808Z,957.97
2019-04-14T13:27:49.770Z,957.97
2019-04-14T13:28:49.753Z,957.94
2019-04-14T13:29:49.742Z,958.02
2019-04-14T13:30:49.723Z,957.99
2019-04-14T13:31:49.749Z,958.01
2019-04-14T13:32:49.686Z,958.03
2019-04-14T13:33:49.670Z,958.07
2019-04-14T13:34:49.651Z,958.09
2019-04-14T13:35:49.635Z,958.04
2019-04-14T13:36:49.619Z,958.06